Rentz, Georgia
Current Conditions -  °F | °C
As of 5:55 PM on Sunday 21 Dec 2014 (Local Time) from KDBN Reporting Station
Haze Haze  
Wind Chill: 43°   Ceiling: 800
Heat Index: 46°   Visibility: 5mi
Dew Point: 46°   Wind: 7mph
Humidity: 100%   Direction: 80°E
Pressure: 30.13"   Gusts: NA
Location:  32.38°N, 82.99°W
Report Text: KDBN 212255Z AUTO 08006KT 5SM BR BKN008 OVC013 08/08 A3013 RMK AO2
Loading
Personal Weather Stations






























Interactive Weather Map New forecast layout! Learn more

10-Day Weather Forecast

Advertisements
Track Severe Weather on mobile